La Serena, La Serena La Florida Airport (SCSE)

NameLa Serena La Florida Airport
CityLa Serena
CountryChile
ICAOSCSE
IATALSC
Altitude147 m
CoordinatesGoogle Map
Live Air TrafficLiveATC.net
METARSCSE 171000Z 00000KT 9999 BKN030 10/07 Q1019
2019-10-17 10:00:00 Wind: North (0°) 0 m/s - Visibility: > 10000 m - Temperature: 10 °C - Dew point: 7 °C - Humidity: 81.8% - Pressure: 1019 hPa

Sorry, no flights used the airport in this database.